createdAt,value
2019-05-11T00:01:38.780Z,3.33
2019-05-11T00:04:05.177Z,3.90
2019-05-11T00:06:31.486Z,3.53
2019-05-11T00:08:57.673Z,3.53
2019-05-11T00:11:23.853Z,4.33
2019-05-11T00:13:50.033Z,5.03
2019-05-11T00:16:19.038Z,5.63
2019-05-11T00:18:44.317Z,3.60
2019-05-11T00:21:10.698Z,3.73
2019-05-11T00:23:37.013Z,3.97
2019-05-11T00:26:03.267Z,3.40
2019-05-11T00:28:29.821Z,4.87
2019-05-11T00:30:56.261Z,5.53
2019-05-11T00:33:22.442Z,4.13
2019-05-11T00:35:48.695Z,5.37
2019-05-11T00:38:14.869Z,4.27
2019-05-11T00:40:41.235Z,5.97
2019-05-11T00:43:07.568Z,5.83
2019-05-11T00:45:34.009Z,4.67
2019-05-11T00:48:00.494Z,5.23
2019-05-11T00:50:38.599Z,5.03
2019-05-11T00:52:55.062Z,6.47
2019-05-11T00:55:21.650Z,3.07
2019-05-11T00:57:47.867Z,4.50
2019-05-11T01:00:14.353Z,5.50
2019-05-11T01:02:41.840Z,3.10
2019-05-11T01:05:08.483Z,4.20
2019-05-11T01:07:34.789Z,6.60
2019-05-11T01:10:01.433Z,4.37
2019-05-11T01:12:27.733Z,3.97
2019-05-11T01:14:54.034Z,5.30
2019-05-11T01:17:20.213Z,4.77
2019-05-11T01:19:46.537Z,5.67
2019-05-11T01:22:12.812Z,4.43
2019-05-11T01:24:39.072Z,6.00
2019-05-11T01:27:05.293Z,6.33
2019-05-11T01:29:31.568Z,5.07
2019-05-11T01:31:57.753Z,3.27
2019-05-11T01:34:23.953Z,4.53
2019-05-11T01:36:50.322Z,6.70
2019-05-11T01:39:16.652Z,6.33
2019-05-11T01:41:43.084Z,6.00
2019-05-11T01:44:09.365Z,6.30
2019-05-11T01:46:35.706Z,3.77
2019-05-11T01:49:01.886Z,2.90
2019-05-11T01:51:29.392Z,4.17
2019-05-11T01:53:55.569Z,4.83
2019-05-11T01:56:21.701Z,4.17
2019-05-11T01:58:48.020Z,4.10
2019-05-11T02:01:14.627Z,3.47
2019-05-11T02:03:40.968Z,4.73
2019-05-11T02:06:07.123Z,7.30
2019-05-11T02:08:33.268Z,4.70
2019-05-11T02:11:14.817Z,5.10
2019-05-11T02:13:27.751Z,6.57
2019-05-11T02:15:53.992Z,3.40
2019-05-11T02:18:20.266Z,3.63
2019-05-11T02:20:46.521Z,6.73
2019-05-11T02:23:12.826Z,3.97
2019-05-11T02:25:39.098Z,5.20
2019-05-11T02:28:05.398Z,4.30
2019-05-11T02:30:31.611Z,5.17
2019-05-11T02:32:58.127Z,3.90
2019-05-11T02:35:24.285Z,4.27
2019-05-11T02:37:51.563Z,5.33
2019-05-11T02:40:19.210Z,4.40
2019-05-11T02:42:45.451Z,4.93
2019-05-11T02:45:11.821Z,5.27
2019-05-11T02:47:38.059Z,5.33
2019-05-11T02:50:04.316Z,8.30
2019-05-11T02:52:30.543Z,4.70
2019-05-11T02:54:57.911Z,4.47
2019-05-11T02:57:24.148Z,4.83
2019-05-11T02:59:50.550Z,4.23
2019-05-11T03:02:16.790Z,5.07
2019-05-11T03:04:43.439Z,4.77
2019-05-11T03:07:09.675Z,4.63
2019-05-11T03:09:35.835Z,6.87
2019-05-11T03:12:02.095Z,5.40
2019-05-11T03:14:28.640Z,6.70
2019-05-11T03:17:11.101Z,5.37
2019-05-11T03:19:37.387Z,4.23
2019-05-11T03:22:03.714Z,4.63
2019-05-11T03:24:30.136Z,4.97
2019-05-11T03:26:56.392Z,5.10
2019-05-11T03:29:22.546Z,7.70
2019-05-11T03:31:48.659Z,7.13
2019-05-11T03:34:14.809Z,4.67
2019-05-11T03:36:40.934Z,7.93
2019-05-11T03:39:07.181Z,4.50
2019-05-11T03:41:33.323Z,4.83
2019-05-11T03:43:59.467Z,6.07
2019-05-11T03:46:25.760Z,6.07
2019-05-11T03:48:51.878Z,7.60
2019-05-11T03:51:18.154Z,5.97
2019-05-11T03:53:44.386Z,5.47
2019-05-11T03:56:10.618Z,5.77
2019-05-11T03:58:36.788Z,8.40
2019-05-11T04:01:03.053Z,8.17
2019-05-11T04:03:29.185Z,8.67
2019-05-11T04:05:55.367Z,5.07
2019-05-11T04:08:21.795Z,8.27
2019-05-11T04:10:48.066Z,4.63
2019-05-11T04:13:14.201Z,7.53
2019-05-11T04:15:40.381Z,6.97
2019-05-11T04:18:06.576Z,9.23
2019-05-11T04:20:32.826Z,6.67
2019-05-11T04:22:58.967Z,7.83
2019-05-11T04:25:25.163Z,8.30
2019-05-11T04:27:51.318Z,7.67
2019-05-11T04:30:17.542Z,7.87
2019-05-11T04:32:43.872Z,10.00
2019-05-11T04:35:10.398Z,8.90
2019-05-11T04:37:36.534Z,9.07
2019-05-11T04:40:02.793Z,9.10
2019-05-11T04:42:28.925Z,7.83
2019-05-11T04:44:55.082Z,9.03
2019-05-11T04:47:21.248Z,7.00
2019-05-11T04:49:47.387Z,9.20
2019-05-11T04:52:13.982Z,7.07
2019-05-11T04:54:40.243Z,7.70
2019-05-11T04:57:06.594Z,6.33
2019-05-11T04:59:32.834Z,8.20
2019-05-11T05:01:59.396Z,10.50
2019-05-11T05:04:25.606Z,9.00
2019-05-11T05:06:59.543Z,7.83
2019-05-11T05:09:20.255Z,8.67
2019-05-11T05:11:46.713Z,8.53
2019-05-11T05:14:12.999Z,7.60
2019-05-11T05:16:39.237Z,9.27
2019-05-11T05:19:05.681Z,8.07
2019-05-11T05:21:32.035Z,9.03
2019-05-11T05:23:58.401Z,7.57
2019-05-11T05:26:24.549Z,8.67
2019-05-11T05:28:50.914Z,9.63
2019-05-11T05:31:17.276Z,8.80
2019-05-11T05:33:43.717Z,9.33
2019-05-11T05:36:09.902Z,8.33
2019-05-11T05:38:36.706Z,9.03
2019-05-11T05:41:03.260Z,7.37
2019-05-11T05:43:29.587Z,11.40
2019-05-11T05:45:55.782Z,9.83
2019-05-11T05:48:22.057Z,9.90
2019-05-11T05:50:48.407Z,8.63
2019-05-11T05:53:14.850Z,11.17
2019-05-11T05:55:41.111Z,8.63
2019-05-11T05:58:07.528Z,8.37
2019-05-11T06:00:33.857Z,9.40
2019-05-11T06:03:00.183Z,9.13
2019-05-11T06:05:26.542Z,8.60
2019-05-11T06:07:52.870Z,11.40
2019-05-11T06:10:19.814Z,6.87
2019-05-11T06:12:46.090Z,11.50
2019-05-11T06:15:12.817Z,10.60
2019-05-11T06:17:39.054Z,7.77
2019-05-11T06:20:05.557Z,9.17
2019-05-11T06:22:32.227Z,7.70
2019-05-11T06:24:58.679Z,9.80
2019-05-11T06:27:25.097Z,8.87
2019-05-11T06:29:51.579Z,9.43
2019-05-11T06:32:18.219Z,10.40
2019-05-11T06:34:44.703Z,9.50
2019-05-11T06:37:10.931Z,7.27
2019-05-11T06:39:37.102Z,10.37
2019-05-11T06:42:03.461Z,10.97
2019-05-11T06:44:29.874Z,7.43
2019-05-11T06:46:56.228Z,9.73
2019-05-11T06:49:22.550Z,9.87
2019-05-11T06:51:48.883Z,11.60
2019-05-11T06:54:15.162Z,10.10
2019-05-11T06:56:41.483Z,9.87
2019-05-11T06:59:07.927Z,9.63
2019-05-11T07:01:34.542Z,10.17
2019-05-11T07:04:00.870Z,8.90
2019-05-11T07:06:30.558Z,10.50
2019-05-11T07:08:55.497Z,9.50
2019-05-11T07:11:21.801Z,10.63
2019-05-11T07:13:48.166Z,9.83
2019-05-11T07:16:14.602Z,10.33
2019-05-11T07:18:41.001Z,9.53
2019-05-11T07:21:07.463Z,10.27
2019-05-11T07:23:33.821Z,9.30
2019-05-11T07:26:01.840Z,8.93
2019-05-11T07:28:28.023Z,7.70
2019-05-11T07:30:54.400Z,9.47
2019-05-11T07:33:20.649Z,10.07
2019-05-11T07:35:47.842Z,7.33
2019-05-11T07:38:14.348Z,7.30
2019-05-11T07:40:40.740Z,9.40
2019-05-11T07:43:09.678Z,8.77
2019-05-11T07:45:35.429Z,9.97
2019-05-11T07:48:01.673Z,8.93
2019-05-11T07:50:28.498Z,8.60
2019-05-11T07:52:55.003Z,8.93
2019-05-11T07:55:22.446Z,8.07
2019-05-11T07:57:48.770Z,6.77
2019-05-11T08:00:15.530Z,7.67
2019-05-11T08:02:41.906Z,9.53
2019-05-11T08:05:08.837Z,7.93
2019-05-11T08:07:41.512Z,9.77
2019-05-11T08:10:08.431Z,9.03
2019-05-11T08:12:34.834Z,8.60
2019-05-11T08:15:08.133Z,5.70
2019-05-11T08:17:29.459Z,4.73
2019-05-11T08:19:57.935Z,3.43
2019-05-11T08:22:28.640Z,3.23
2019-05-11T08:24:58.599Z,3.37
2019-05-11T08:27:25.244Z,3.07
2019-05-11T08:29:51.646Z,1.90
2019-05-11T08:32:18.412Z,1.73
2019-05-11T08:34:44.749Z,2.03
2019-05-11T08:37:13.429Z,1.47
2019-05-11T08:39:39.930Z,1.70
2019-05-11T08:42:08.546Z,3.20
2019-05-11T08:44:34.744Z,1.30
2019-05-11T08:47:03.810Z,1.50
2019-05-11T08:49:30.155Z,1.23
2019-05-11T08:51:57.877Z,2.93
2019-05-11T08:54:24.313Z,1.03
2019-05-11T08:56:50.786Z,1.20
2019-05-11T08:59:18.648Z,1.33
2019-05-11T09:01:45.274Z,3.23
2019-05-11T09:04:11.620Z,1.23
2019-05-11T09:06:38.132Z,1.53
2019-05-11T09:09:05.510Z,0.97
2019-05-11T09:11:38.969Z,1.33
2019-05-11T09:14:08.233Z,2.13
2019-05-11T09:16:34.475Z,0.80
2019-05-11T09:19:00.829Z,2.87
2019-05-11T09:21:28.136Z,1.90
2019-05-11T09:23:54.686Z,0.90
2019-05-11T09:26:20.942Z,0.80
2019-05-11T09:28:47.803Z,0.97
2019-05-11T09:31:14.031Z,1.67
2019-05-11T09:33:40.381Z,1.27
2019-05-11T09:36:08.515Z,1.07
2019-05-11T09:38:34.965Z,0.90
2019-05-11T09:41:01.398Z,1.27
2019-05-11T09:43:28.368Z,3.53
2019-05-11T09:45:54.903Z,1.00
2019-05-11T09:48:21.408Z,2.50
2019-05-11T09:50:48.224Z,1.70
2019-05-11T09:53:14.588Z,1.37
2019-05-11T09:55:40.855Z,1.83
2019-05-11T09:58:08.541Z,1.67
2019-05-11T10:00:35.451Z,1.23
2019-05-11T10:03:01.871Z,1.40
2019-05-11T10:05:28.800Z,2.40
2019-05-11T10:07:55.043Z,1.30
2019-05-11T10:10:21.394Z,1.03
2019-05-11T10:12:48.546Z,1.73
2019-05-11T10:15:18.661Z,1.13
2019-05-11T10:17:44.920Z,0.97
2019-05-11T10:20:11.214Z,2.27
2019-05-11T10:22:38.406Z,2.77
2019-05-11T10:25:09.006Z,1.63
2019-05-11T10:27:35.602Z,1.57
2019-05-11T10:30:01.887Z,1.27
2019-05-11T10:32:28.914Z,2.40
2019-05-11T10:34:55.142Z,1.53
2019-05-11T10:37:21.358Z,0.97
2019-05-11T10:39:48.829Z,3.33
2019-05-11T10:42:15.377Z,1.00
2019-05-11T10:44:41.594Z,1.17
2019-05-11T10:47:08.283Z,1.40
2019-05-11T10:49:34.806Z,1.13
2019-05-11T10:52:01.222Z,1.17
2019-05-11T10:54:28.675Z,1.40
2019-05-11T10:56:57.735Z,1.00
2019-05-11T10:59:23.649Z,2.57
2019-05-11T11:01:50.289Z,0.83
2019-05-11T11:04:18.404Z,0.50
2019-05-11T11:06:44.692Z,1.77
2019-05-11T11:09:11.178Z,2.50
2019-05-11T11:11:38.205Z,0.83
2019-05-11T11:14:04.866Z,0.80
2019-05-11T11:16:38.770Z,1.17
2019-05-11T11:18:59.334Z,1.57
2019-05-11T11:21:27.804Z,1.10
2019-05-11T11:23:53.906Z,1.17
2019-05-11T11:26:20.053Z,0.80
2019-05-11T11:28:47.826Z,1.00
2019-05-11T11:31:14.614Z,1.20
2019-05-11T11:33:40.983Z,3.37
2019-05-11T11:36:08.583Z,0.87
2019-05-11T11:38:37.116Z,1.03
2019-05-11T11:41:03.768Z,2.20
2019-05-11T11:43:31.513Z,1.60
2019-05-11T11:45:58.064Z,1.47
2019-05-11T11:48:24.422Z,1.00
2019-05-11T11:50:50.766Z,1.10
2019-05-11T11:53:18.815Z,1.90
2019-05-11T11:55:45.446Z,1.10
2019-05-11T11:58:11.685Z,1.10
2019-05-11T12:00:39.048Z,1.20
2019-05-11T12:03:07.866Z,1.33
2019-05-11T12:05:33.874Z,2.20
2019-05-11T12:08:00.510Z,1.60
2019-05-11T12:10:28.666Z,3.00
2019-05-11T12:12:55.067Z,0.90
2019-05-11T12:15:21.442Z,1.27
2019-05-11T12:17:48.336Z,1.50
2019-05-11T12:20:14.986Z,1.13
2019-05-11T12:22:41.121Z,4.10
2019-05-11T12:25:07.918Z,0.60
2019-05-11T12:27:34.594Z,0.60
2019-05-11T12:30:00.830Z,1.47
2019-05-11T12:32:39.913Z,1.53
2019-05-11T12:35:08.639Z,0.80
2019-05-11T12:37:35.042Z,1.57
2019-05-11T12:40:01.778Z,0.70
2019-05-11T12:42:28.432Z,2.00
2019-05-11T12:44:55.217Z,1.60
2019-05-11T12:47:24.973Z,1.17
2019-05-11T12:49:49.787Z,0.97
2019-05-11T12:52:18.269Z,0.93
2019-05-11T12:54:44.166Z,3.17
2019-05-11T12:57:10.310Z,2.10
2019-05-11T12:59:38.122Z,0.93
2019-05-11T13:02:04.491Z,0.77
2019-05-11T13:04:30.982Z,1.30
2019-05-11T13:06:58.145Z,0.83
2019-05-11T13:09:24.634Z,0.50
2019-05-11T13:11:50.985Z,1.60
2019-05-11T13:14:19.582Z,1.60
2019-05-11T13:16:48.136Z,0.80
2019-05-11T13:19:14.285Z,0.60
2019-05-11T13:21:40.856Z,2.67
2019-05-11T13:24:08.404Z,1.17
2019-05-11T13:26:35.002Z,2.10
2019-05-11T13:29:01.278Z,4.10
2019-05-11T13:31:27.905Z,1.57
2019-05-11T13:33:54.618Z,1.30
2019-05-11T13:36:20.958Z,4.97
2019-05-11T13:38:48.251Z,2.30
2019-05-11T13:41:14.909Z,2.30
2019-05-11T13:43:41.214Z,2.17
2019-05-11T13:46:08.724Z,1.60
2019-05-11T13:48:35.474Z,1.80
2019-05-11T13:51:01.617Z,2.93
2019-05-11T13:53:27.760Z,4.93
2019-05-11T13:55:54.045Z,1.40
2019-05-11T13:58:20.378Z,1.10
2019-05-11T14:00:48.101Z,2.17
2019-05-11T14:03:14.615Z,3.93
2019-05-11T14:05:40.739Z,1.47
2019-05-11T14:08:08.113Z,1.23
2019-05-11T14:10:34.645Z,1.27
2019-05-11T14:13:01.019Z,1.87
2019-05-11T14:15:28.038Z,2.30
2019-05-11T14:18:05.642Z,1.80
2019-05-11T14:20:22.619Z,2.67
2019-05-11T14:22:48.918Z,1.37
2019-05-11T14:25:15.410Z,1.30
2019-05-11T14:27:41.970Z,5.17
2019-05-11T14:30:08.769Z,3.60
2019-05-11T14:32:35.253Z,2.83
2019-05-11T14:35:02.707Z,1.73
2019-05-11T14:37:28.858Z,3.00
2019-05-11T14:39:55.124Z,1.17
2019-05-11T14:42:22.460Z,1.87
2019-05-11T14:44:48.877Z,2.50
2019-05-11T14:47:15.229Z,3.70
2019-05-11T14:49:41.606Z,3.30
2019-05-11T14:52:08.393Z,2.00
2019-05-11T14:54:35.022Z,2.20
2019-05-11T14:57:01.309Z,2.47
2019-05-11T14:59:28.530Z,2.50
2019-05-11T15:01:55.075Z,2.93
2019-05-11T15:04:21.489Z,3.23
2019-05-11T15:06:49.011Z,3.13
2019-05-11T15:09:18.098Z,2.80
2019-05-11T15:11:43.647Z,1.17
2019-05-11T15:14:10.083Z,3.17
2019-05-11T15:16:38.332Z,4.37
2019-05-11T15:19:04.705Z,1.50
2019-05-11T15:21:31.004Z,1.23
2019-05-11T15:23:58.075Z,1.53
2019-05-11T15:26:24.590Z,3.17
2019-05-11T15:28:50.938Z,2.27
2019-05-11T15:31:22.104Z,2.37
2019-05-11T15:33:45.490Z,1.70
2019-05-11T15:36:11.817Z,3.27
2019-05-11T15:38:38.526Z,1.47
2019-05-11T15:41:04.962Z,2.00
2019-05-11T15:43:31.116Z,2.27
2019-05-11T15:45:57.937Z,3.40
2019-05-11T15:48:24.418Z,1.80
2019-05-11T15:50:50.665Z,1.40
2019-05-11T15:53:17.881Z,2.77
2019-05-11T15:55:44.366Z,1.10
2019-05-11T15:58:10.964Z,2.57
2019-05-11T16:00:39.692Z,2.20
2019-05-11T16:03:07.992Z,1.80
2019-05-11T16:05:34.043Z,1.97
2019-05-11T16:08:01.750Z,1.37
2019-05-11T16:10:28.022Z,1.83
2019-05-11T16:12:54.170Z,1.07
2019-05-11T16:15:20.786Z,1.00
2019-05-11T16:17:48.630Z,4.80
2019-05-11T16:20:17.549Z,1.60
2019-05-11T16:22:43.822Z,1.20
2019-05-11T16:25:10.098Z,1.27
2019-05-11T16:27:38.023Z,2.00
2019-05-11T16:30:04.762Z,3.87
2019-05-11T16:32:31.094Z,1.83
2019-05-11T16:34:57.651Z,1.03
2019-05-11T16:37:25.645Z,1.10
2019-05-11T16:39:51.798Z,2.20
2019-05-11T16:42:18.130Z,1.20
2019-05-11T16:44:44.376Z,1.50
2019-05-11T16:47:10.714Z,1.70
2019-05-11T16:49:38.429Z,0.97
2019-05-11T16:52:05.010Z,1.10
2019-05-11T16:54:31.386Z,0.80
2019-05-11T16:56:58.061Z,1.60
2019-05-11T16:59:24.378Z,1.10
2019-05-11T17:01:50.694Z,1.63
2019-05-11T17:04:17.022Z,2.23
2019-05-11T17:06:43.150Z,1.30
2019-05-11T17:09:09.426Z,1.67
2019-05-11T17:11:38.082Z,2.50
2019-05-11T17:14:03.859Z,1.70
2019-05-11T17:16:30.166Z,2.17
2019-05-11T17:18:58.426Z,1.63
2019-05-11T17:21:24.645Z,1.27
2019-05-11T17:23:50.820Z,1.70
2019-05-11T17:26:19.065Z,2.33
2019-05-11T17:28:45.295Z,2.93
2019-05-11T17:31:11.812Z,1.90
2019-05-11T17:33:38.651Z,0.77
2019-05-11T17:36:05.121Z,0.53
2019-05-11T17:38:31.416Z,0.80
2019-05-11T17:40:57.819Z,0.40
2019-05-11T17:43:24.290Z,0.97
2019-05-11T17:45:50.705Z,0.80
2019-05-11T17:48:17.835Z,0.40
2019-05-11T17:50:44.282Z,0.50
2019-05-11T17:53:10.633Z,0.60
2019-05-11T17:55:38.262Z,0.50
2019-05-11T17:58:05.037Z,1.00
2019-05-11T18:00:31.402Z,0.50
2019-05-11T18:02:58.364Z,1.30
2019-05-11T18:05:25.893Z,0.20
2019-05-11T18:07:52.204Z,0.30
2019-05-11T18:10:18.738Z,1.80
2019-05-11T18:12:45.299Z,0.40
2019-05-11T18:15:11.811Z,0.20
2019-05-11T18:17:38.166Z,2.20
2019-05-11T18:20:14.817Z,0.80
2019-05-11T18:22:33.159Z,2.50
2019-05-11T18:24:59.779Z,0.72
2019-05-11T18:27:27.719Z,0.57
2019-05-11T18:29:54.418Z,0.43
2019-05-11T18:32:20.562Z,0.83
2019-05-11T18:34:48.484Z,2.40
2019-05-11T18:37:14.774Z,1.83
2019-05-11T18:39:41.022Z,2.27
2019-05-11T18:42:08.289Z,0.83
2019-05-11T18:44:34.683Z,0.30
2019-05-11T18:47:00.986Z,0.57
2019-05-11T18:49:28.544Z,2.40
2019-05-11T18:51:54.949Z,1.83
2019-05-11T18:54:21.300Z,1.03
2019-05-11T18:56:49.311Z,1.30
2019-05-11T18:59:15.666Z,1.17
2019-05-11T19:01:42.025Z,2.43
2019-05-11T19:04:08.578Z,1.30
2019-05-11T19:06:34.896Z,1.53
2019-05-11T19:09:01.490Z,2.20
2019-05-11T19:11:29.295Z,1.07
2019-05-11T19:13:59.123Z,1.50
2019-05-11T19:16:25.470Z,1.17
2019-05-11T19:18:51.817Z,0.70
2019-05-11T19:21:18.355Z,0.70
2019-05-11T19:23:44.771Z,1.33
2019-05-11T19:26:11.450Z,0.83
2019-05-11T19:28:38.469Z,2.43
2019-05-11T19:31:08.317Z,1.77
2019-05-11T19:33:34.701Z,3.87
2019-05-11T19:36:00.969Z,1.27
2019-05-11T19:38:41.698Z,0.60
2019-05-11T19:41:08.820Z,1.57
2019-05-11T19:43:35.327Z,0.60
2019-05-11T19:46:01.630Z,0.63
2019-05-11T19:48:28.402Z,2.90
2019-05-11T19:51:06.536Z,1.37
2019-05-11T19:53:23.154Z,2.27
2019-05-11T19:55:49.607Z,0.97
2019-05-11T19:58:18.341Z,1.80
2019-05-11T20:00:44.189Z,0.90
2019-05-11T20:03:10.502Z,1.43
2019-05-11T20:05:38.020Z,1.67
2019-05-11T20:08:04.562Z,1.70
2019-05-11T20:10:30.981Z,1.73
2019-05-11T20:12:58.725Z,2.17
2019-05-11T20:15:25.802Z,1.60
2019-05-11T20:17:52.411Z,0.60
2019-05-11T20:20:18.974Z,0.97
2019-05-11T20:22:48.231Z,0.80
2019-05-11T20:25:14.735Z,1.17
2019-05-11T20:27:41.454Z,0.53
2019-05-11T20:30:08.592Z,2.10
2019-05-11T20:32:35.153Z,1.10
2019-05-11T20:35:01.481Z,0.80
2019-05-11T20:37:28.806Z,0.80
2019-05-11T20:39:55.494Z,1.30
2019-05-11T20:42:22.123Z,1.37
2019-05-11T20:44:48.949Z,0.80
2019-05-11T20:47:17.434Z,3.47
2019-05-11T20:49:43.536Z,1.37
2019-05-11T20:52:09.862Z,1.80
2019-05-11T20:54:38.464Z,1.47
2019-05-11T20:57:04.347Z,1.43
2019-05-11T20:59:31.906Z,1.50
2019-05-11T21:01:58.943Z,1.47
2019-05-11T21:04:28.032Z,2.20
2019-05-11T21:06:53.418Z,1.93
2019-05-11T21:09:19.709Z,2.27
2019-05-11T21:11:47.958Z,1.97
2019-05-11T21:14:14.480Z,1.30
2019-05-11T21:16:40.874Z,1.30
2019-05-11T21:19:08.232Z,3.27
2019-05-11T21:21:46.285Z,1.03
2019-05-11T21:24:03.340Z,1.87
2019-05-11T21:26:29.702Z,1.17
2019-05-11T21:28:58.011Z,1.27
2019-05-11T21:31:24.829Z,1.23
2019-05-11T21:33:51.448Z,1.50
2019-05-11T21:36:18.137Z,1.30
2019-05-11T21:38:44.674Z,1.70
2019-05-11T21:41:11.883Z,1.77
2019-05-11T21:43:38.974Z,0.93
2019-05-11T21:46:08.001Z,1.97
2019-05-11T21:48:33.787Z,2.40
2019-05-11T21:51:00.049Z,2.43
2019-05-11T21:53:28.759Z,2.77
2019-05-11T21:55:58.479Z,3.43
2019-05-11T21:58:25.442Z,2.37
2019-05-11T22:00:51.757Z,1.23
2019-05-11T22:03:18.781Z,2.57
2019-05-11T22:05:45.322Z,1.60
2019-05-11T22:08:12.160Z,2.37
2019-05-11T22:10:38.705Z,1.83
2019-05-11T22:13:05.111Z,2.30
2019-05-11T22:15:33.309Z,1.37
2019-05-11T22:17:59.490Z,3.30
2019-05-11T22:20:25.757Z,2.40
2019-05-11T22:22:51.997Z,2.27
2019-05-11T22:25:18.500Z,3.33
2019-05-11T22:27:44.794Z,2.37
2019-05-11T22:30:11.139Z,3.03
2019-05-11T22:32:38.373Z,1.40
2019-05-11T22:35:05.082Z,1.40
2019-05-11T22:37:32.526Z,0.90
2019-05-11T22:39:58.674Z,1.67
2019-05-11T22:42:25.066Z,1.93
2019-05-11T22:44:51.494Z,1.60
2019-05-11T22:47:17.927Z,1.60
2019-05-11T22:49:44.322Z,2.17
2019-05-11T22:52:10.463Z,1.93
2019-05-11T22:54:38.308Z,1.97
2019-05-11T22:57:04.998Z,1.97
2019-05-11T22:59:31.658Z,1.73
2019-05-11T23:01:57.914Z,2.57
2019-05-11T23:04:24.259Z,2.63
2019-05-11T23:06:50.499Z,3.63
2019-05-11T23:09:18.435Z,3.27
2019-05-11T23:11:44.826Z,2.83
2019-05-11T23:14:11.012Z,2.97
2019-05-11T23:16:37.571Z,2.53
2019-05-11T23:19:03.812Z,2.47
2019-05-11T23:21:30.391Z,2.30
2019-05-11T23:23:58.297Z,2.50
2019-05-11T23:26:24.664Z,2.40
2019-05-11T23:28:50.822Z,2.43
2019-05-11T23:31:17.154Z,2.47
2019-05-11T23:33:43.577Z,2.83
2019-05-11T23:36:09.867Z,2.77
2019-05-11T23:38:38.497Z,3.63
2019-05-11T23:41:04.270Z,3.67
2019-05-11T23:43:30.571Z,4.07
2019-05-11T23:45:57.756Z,2.53
2019-05-11T23:48:24.278Z,3.40
2019-05-11T23:50:50.526Z,3.00
2019-05-11T23:53:17.863Z,2.53
2019-05-11T23:55:44.090Z,3.50
2019-05-11T23:58:10.314Z,4.33
